Time;durP1;ratioP1;P1;durP2;ratioP2;P2;SDS_P1;SDS_P2;PMS_P1;PMS_P2;Temp;Humidity;BMP_temperature;BMP_pressure;BME280_temperature;BME280_humidity;BME280_pressure;Samples;Min_cycle;Max_cycle;Signal;HPM_P1;HPM_P2
2023/07/13 00:00:16;;;;;;;1.97;1.00;;;17.30;99.90;;;;;;5001987;28;20248;-62
2023/07/13 00:02:42;;;;;;;2.83;1.20;;;17.30;99.90;;;;;;4997899;28;20225;-64
2023/07/13 00:05:10;;;;;;;2.40;1.30;;;17.40;99.90;;;;;;5016688;28;20748;-63
2023/07/13 00:07:37;;;;;;;2.73;1.10;;;17.40;99.90;;;;;;5001851;28;20308;-60
2023/07/13 00:10:05;;;;;;;4.17;1.37;;;17.40;99.90;;;;;;5002144;28;20209;-60
2023/07/13 00:12:35;;;;;;;8.30;1.40;;;17.30;99.90;;;;;;5002297;28;20224;-60
2023/07/13 00:15:06;;;;;;;2.87;1.10;;;17.20;99.90;;;;;;5001576;28;20256;-61
2023/07/13 00:17:33;;;;;;;4.07;1.53;;;16.90;99.90;;;;;;5000324;28;20256;-61
2023/07/13 00:20:00;;;;;;;3.53;1.30;;;16.90;1.00;;;;;;5001377;28;20220;-59
2023/07/13 00:22:27;;;;;;;3.37;1.30;;;16.90;1.00;;;;;;5001159;28;20670;-59
2023/07/13 00:24:56;;;;;;;6.47;1.30;;;16.90;1.00;;;;;;5000449;28;20666;-59
2023/07/13 00:27:23;;;;;;;5.70;1.60;;;17.00;1.00;;;;;;5001052;28;20204;-61
2023/07/13 00:29:50;;;;;;;7.00;1.20;;;17.00;1.00;;;;;;4998395;28;20214;-61
2023/07/13 00:32:17;;;;;;;3.03;1.17;;;17.10;1.00;;;;;;5001220;28;20233;-64
2023/07/13 00:34:44;;;;;;;5.17;1.47;;;17.00;1.00;;;;;;4998495;28;20205;-67
2023/07/13 00:37:11;;;;;;;4.50;1.90;;;16.90;1.00;;;;;;5000232;28;20297;-65
2023/07/13 00:39:38;;;;;;;4.20;1.20;;;16.90;1.00;;;;;;5001178;28;20201;-67
2023/07/13 00:42:06;;;;;;;5.20;1.43;;;17.00;1.00;;;;;;5016222;28;20210;-66
2023/07/13 00:44:33;;;;;;;4.33;1.77;;;17.10;1.00;;;;;;4997091;28;20205;-67
2023/07/13 00:47:00;;;;;;;6.93;1.57;;;17.00;1.00;;;;;;4999247;28;20293;-64
2023/07/13 00:49:30;;;;;;;7.23;1.70;;;17.00;1.00;;;;;;4996445;28;20225;-67
2023/07/13 00:51:58;;;;;;;5.50;1.47;;;16.90;99.90;;;;;;5000213;28;20202;-65
2023/07/13 00:54:39;;;;;;;6.57;2.10;;;16.70;1.00;;;;;;4998914;28;20619;-66
2023/07/13 00:57:11;;;;;;;5.33;1.40;;;16.70;1.00;;;;;;4998826;28;20576;-66
2023/07/13 00:59:41;;;;;;;3.07;1.90;;;16.70;1.00;;;;;;4996844;28;20232;-66
2023/07/13 01:02:08;;;;;;;3.17;1.00;;;16.90;1.00;;;;;;4998418;28;20709;-67
2023/07/13 01:04:35;;;;;;;4.53;1.57;;;16.90;1.00;;;;;;4993851;28;20364;-65
2023/07/13 01:07:02;;;;;;;4.83;1.80;;;16.90;1.00;;;;;;4997644;28;20317;-64
2023/07/13 01:09:30;;;;;;;5.00;1.80;;;16.90;1.00;;;;;;4999042;28;20263;-66
2023/07/13 01:11:57;;;;;;;3.13;1.63;;;17.00;1.00;;;;;;4999676;28;20280;-67
2023/07/13 01:14:24;;;;;;;5.93;1.40;;;17.00;1.00;;;;;;4999591;28;20672;-65
2023/07/13 01:16:52;;;;;;;6.63;1.57;;;16.90;1.00;;;;;;5001014;28;20295;-66
2023/07/13 01:19:29;;;;;;;6.83;1.67;;;16.90;1.00;;;;;;4997694;28;20214;-66
2023/07/13 01:21:56;;;;;;;7.23;1.90;;;16.80;1.00;;;;;;4998617;28;20213;-65
2023/07/13 01:24:23;;;;;;;3.13;1.50;;;16.50;1.00;;;;;;4995993;28;20215;-66
2023/07/13 01:26:50;;;;;;;5.63;1.97;;;16.60;1.00;;;;;;4995186;28;20253;-65
2023/07/13 01:29:17;;;;;;;9.47;2.97;;;16.60;1.00;;;;;;4995990;28;20739;-66
2023/07/13 01:31:44;;;;;;;3.33;1.60;;;16.60;1.00;;;;;;4998724;28;20205;-64
2023/07/13 01:34:11;;;;;;;9.30;1.87;;;16.70;1.00;;;;;;4998862;28;20208;-65
2023/07/13 01:36:38;;;;;;;4.47;1.80;;;16.70;1.00;;;;;;4997478;28;20209;-67
2023/07/13 01:39:05;;;;;;;4.73;2.03;;;16.70;1.00;;;;;;4995453;28;20208;-64
2023/07/13 01:41:32;;;;;;;6.17;1.90;;;16.70;1.00;;;;;;4998867;28;20215;-65
2023/07/13 01:43:59;;;;;;;6.73;2.00;;;16.60;1.00;;;;;;4998032;28;20313;-63
2023/07/13 01:46:26;;;;;;;4.80;2.17;;;16.60;1.00;;;;;;4998596;28;20211;-64
2023/07/13 01:48:53;;;;;;;10.00;2.00;;;16.30;97.50;;;;;;4992132;28;20724;-64
2023/07/13 01:51:20;;;;;;;6.03;1.83;;;16.30;99.90;;;;;;4998050;28;20204;-65
2023/07/13 01:53:47;;;;;;;6.27;1.90;;;16.30;99.90;;;;;;4999159;28;20541;-64
2023/07/13 01:56:14;;;;;;;5.47;2.17;;;16.30;1.00;;;;;;4996838;28;20208;-64
2023/07/13 01:58:41;;;;;;;5.43;1.97;;;16.30;1.00;;;;;;4998050;28;20202;-65
2023/07/13 02:01:08;;;;;;;5.37;2.07;;;16.20;1.00;;;;;;4998464;28;20573;-64
2023/07/13 02:03:35;;;;;;;5.17;1.90;;;16.10;1.00;;;;;;5006997;28;20230;-64
2023/07/13 02:06:02;;;;;;;9.83;2.20;;;16.10;99.90;;;;;;4995382;28;20268;-65
2023/07/13 02:08:30;;;;;;;6.40;1.83;;;16.40;1.00;;;;;;4993722;28;20279;-64
2023/07/13 02:10:57;;;;;;;9.20;2.20;;;16.20;1.00;;;;;;4996705;28;20289;-64
2023/07/13 02:13:24;;;;;;;5.60;2.47;;;16.10;1.00;;;;;;4995327;28;20237;-64
2023/07/13 02:15:51;;;;;;;5.50;1.80;;;16.20;97.30;;;;;;4997016;28;20296;-65
2023/07/13 02:18:18;;;;;;;5.63;2.10;;;16.00;1.00;;;;;;4998521;28;20215;-64
2023/07/13 02:20:45;;;;;;;7.20;2.37;;;16.00;1.00;;;;;;5000409;28;20256;-65
2023/07/13 02:23:12;;;;;;;4.17;2.30;;;16.00;1.00;;;;;;4998017;28;20715;-67
2023/07/13 02:25:39;;;;;;;8.17;2.03;;;16.00;99.90;;;;;;4996657;28;20212;-64
2023/07/13 02:28:06;;;;;;;6.30;2.00;;;15.90;99.90;;;;;;4994989;28;20684;-63
2023/07/13 02:30:35;;;;;;;4.70;1.80;;;16.10;1.00;;;;;;4996768;28;20706;-64
2023/07/13 02:33:02;;;;;;;7.30;2.03;;;16.00;46.90;;;;;;4997397;28;20216;-63
2023/07/13 02:35:29;;;;;;;4.30;2.63;;;15.90;99.90;;;;;;4997242;28;20208;-63
2023/07/13 02:37:56;;;;;;;6.53;3.20;;;15.80;1.00;;;;;;4992191;28;20665;-64
2023/07/13 02:40:23;;;;;;;9.00;2.10;;;15.60;99.90;;;;;;4996334;28;20197;-65
2023/07/13 02:42:50;;;;;;;6.77;2.47;;;15.80;1.00;;;;;;4986453;28;20202;-65
2023/07/13 02:45:17;;;;;;;10.87;2.67;;;15.80;1.00;;;;;;4996080;28;20300;-66
2023/07/13 02:47:43;;;;;;;11.07;2.77;;;15.80;57.70;;;;;;5012081;28;20213;-67
2023/07/13 02:50:10;;;;;;;4.43;2.13;;;15.90;1.00;;;;;;4995122;28;20259;-65
2023/07/13 02:52:37;;;;;;;5.30;2.30;;;15.90;1.00;;;;;;4994388;28;20244;-59
2023/07/13 02:55:04;;;;;;;6.23;2.40;;;15.80;99.90;;;;;;4997365;28;20215;-61
2023/07/13 02:57:32;;;;;;;5.70;2.37;;;15.70;1.00;;;;;;4997393;28;20198;-63
2023/07/13 03:00:00;;;;;;;5.73;2.47;;;15.90;99.90;;;;;;4995968;28;20340;-61
2023/07/13 03:02:28;;;;;;;9.00;2.50;;;15.90;99.90;;;;;;4995789;28;20700;-60
2023/07/13 03:04:56;;;;;;;6.20;2.30;;;15.90;1.00;;;;;;4994880;28;20298;-61
2023/07/13 03:07:23;;;;;;;7.50;2.07;;;16.00;99.90;;;;;;4996689;28;20582;-63
2023/07/13 03:09:55;;;;;;;6.70;2.37;;;15.90;99.90;;;;;;4995694;28;20224;-61
2023/07/13 03:12:22;;;;;;;9.13;2.50;;;15.90;99.90;;;;;;4995063;28;20650;-61
2023/07/13 03:14:49;;;;;;;3.77;1.97;;;15.90;45.10;;;;;;4992333;28;20205;-61
2023/07/13 03:17:16;;;;;;;8.40;2.77;;;15.90;1.00;;;;;;4996536;28;20454;-60
2023/07/13 03:19:43;;;;;;;6.90;2.57;;;16.00;99.90;;;;;;5000083;28;20201;-60
2023/07/13 03:22:10;;;;;;;4.93;2.10;;;16.00;1.00;;;;;;5001465;28;20201;-61
2023/07/13 03:24:37;;;;;;;7.77;2.07;;;15.80;99.90;;;;;;4997568;28;20266;-60
2023/07/13 03:27:06;;;;;;;6.53;2.53;;;16.00;99.90;;;;;;4997195;28;20743;-61
2023/07/13 03:29:33;;;;;;;8.33;2.67;;;15.90;99.90;;;;;;5001169;28;20225;-60
2023/07/13 03:31:59;;;;;;;9.23;2.40;;;15.80;99.90;;;;;;4999326;28;20201;-63
2023/07/13 03:34:27;;;;;;;6.43;2.23;;;15.80;1.00;;;;;;4999096;28;20240;-61
2023/07/13 03:36:55;;;;;;;4.77;2.10;;;15.80;1.00;;;;;;5000932;28;20197;-61
2023/07/13 03:39:22;;;;;;;4.23;2.00;;;15.70;1.00;;;;;;4999315;28;20206;-62
2023/07/13 03:41:52;;;;;;;7.50;2.70;;;15.50;1.00;;;;;;5013408;28;20820;-61
2023/07/13 03:44:19;;;;;;;7.67;2.97;;;15.50;1.00;;;;;;4998651;28;20256;-61
2023/07/13 03:46:46;;;;;;;6.27;2.20;;;15.50;1.00;;;;;;4997573;28;20945;-60
2023/07/13 03:49:13;;;;;;;6.43;3.10;;;15.60;1.00;;;;;;4996242;28;20211;-61
2023/07/13 03:51:40;;;;;;;5.77;2.80;;;15.50;99.90;;;;;;5000842;28;20234;-60
2023/07/13 03:54:07;;;;;;;8.57;2.47;;;15.60;99.90;;;;;;4998001;28;20238;-61
2023/07/13 03:56:34;;;;;;;8.17;3.13;;;15.70;1.00;;;;;;5002758;28;20671;-60
2023/07/13 03:59:02;;;;;;;10.80;2.90;;;15.50;99.90;;;;;;4998961;28;20629;-60
2023/07/13 04:01:28;;;;;;;8.70;2.60;;;15.50;1.00;;;;;;4999915;28;20715;-66
2023/07/13 04:03:55;;;;;;;15.77;4.13;;;15.60;1.00;;;;;;5016034;28;20219;-67
2023/07/13 04:06:26;;;;;;;10.23;2.73;;;15.70;99.90;;;;;;5000774;28;20660;-66
2023/07/13 04:08:56;;;;;;;10.17;2.60;;;15.70;1.00;;;;;;4997514;28;20240;-65
2023/07/13 04:11:26;;;;;;;9.43;3.17;;;15.70;99.90;;;;;;4996132;28;20614;-64
2023/07/13 04:13:53;;;;;;;10.67;3.33;;;15.90;1.00;;;;;;4995744;28;20210;-67
2023/07/13 04:16:20;;;;;;;9.50;3.00;;;15.70;99.90;;;;;;5008217;28;20210;-65
2023/07/13 04:18:48;;;;;;;7.83;3.30;;;15.90;99.90;;;;;;4998285;28;20206;-66
2023/07/13 04:21:15;;;;;;;9.23;2.53;;;15.80;99.90;;;;;;4997675;28;20204;-66
2023/07/13 04:23:42;;;;;;;7.13;3.07;;;15.80;1.00;;;;;;4993961;28;20289;-65
2023/07/13 04:26:09;;;;;;;8.10;3.30;;;15.60;1.00;;;;;;4996730;28;20280;-65
2023/07/13 04:28:36;;;;;;;9.33;3.20;;;15.60;1.00;;;;;;4992829;28;20300;-65
2023/07/13 04:31:03;;;;;;;9.77;3.17;;;15.50;1.00;;;;;;4993937;28;20291;-66
2023/07/13 04:33:30;;;;;;;9.30;3.33;;;15.50;1.00;;;;;;4992853;28;20216;-66
2023/07/13 04:35:57;;;;;;;7.97;2.90;;;15.60;99.90;;;;;;4993750;28;20292;-66
2023/07/13 04:38:27;;;;;;;8.83;3.07;;;15.70;1.00;;;;;;4994763;28;20267;-66
2023/07/13 04:41:02;;;;;;;6.10;2.90;;;15.60;1.00;;;;;;5009851;28;20625;-66
2023/07/13 04:43:30;;;;;;;9.13;2.97;;;15.70;1.00;;;;;;4992840;28;20209;-66
2023/07/13 04:46:02;;;;;;;9.87;3.07;;;15.70;1.00;;;;;;4994353;28;20209;-65
2023/07/13 04:48:29;;;;;;;6.80;3.07;;;15.70;1.00;;;;;;4994066;28;20295;-66
2023/07/13 04:50:57;;;;;;;8.23;3.20;;;15.80;99.90;;;;;;4995018;28;20565;-66
2023/07/13 04:53:24;;;;;;;7.00;3.20;;;15.80;99.90;;;;;;4994119;28;20661;-66
2023/07/13 04:55:51;;;;;;;10.47;3.57;;;15.60;99.90;;;;;;4997146;28;20329;-66
2023/07/13 04:58:18;;;;;;;8.53;3.47;;;15.70;1.00;;;;;;4998754;28;20669;-64
2023/07/13 05:00:45;;;;;;;9.10;4.13;;;15.90;99.90;;;;;;4997944;28;20687;-66
2023/07/13 05:03:12;;;;;;;11.13;4.00;;;15.80;1.00;;;;;;4993459;28;20852;-66
2023/07/13 05:05:39;;;;;;;10.27;4.13;;;15.90;1.00;;;;;;4997437;28;20244;-64
2023/07/13 05:08:07;;;;;;;8.47;4.13;;;16.10;1.00;;;;;;4996137;28;20206;-66
2023/07/13 05:10:34;;;;;;;11.67;4.67;;;16.20;1.00;;;;;;4992790;28;20224;-66
2023/07/13 05:13:01;;;;;;;12.43;4.60;;;16.20;99.90;;;;;;4992898;28;20824;-64
2023/07/13 05:15:28;;;;;;;12.93;4.97;;;16.30;1.00;;;;;;4993306;28;20258;-63
2023/07/13 05:17:55;;;;;;;10.47;5.17;;;16.30;1.00;;;;;;4995395;28;20201;-64
2023/07/13 05:20:22;;;;;;;13.40;4.47;;;16.40;99.90;;;;;;4992293;28;20287;-66
2023/07/13 05:22:50;;;;;;;14.13;5.30;;;16.40;1.00;;;;;;4994976;28;20255;-64
2023/07/13 05:25:17;;;;;;;11.47;5.23;;;16.50;1.00;;;;;;4993511;28;20323;-65
2023/07/13 05:27:45;;;;;;;12.00;5.43;;;16.50;99.90;;;;;;4995913;28;20205;-64
2023/07/13 05:30:13;;;;;;;19.00;6.57;;;16.60;1.00;;;;;;4994047;28;20592;-64
2023/07/13 05:32:40;;;;;;;11.90;5.53;;;16.70;1.00;;;;;;4994058;28;20208;-65
2023/07/13 05:35:08;;;;;;;13.10;5.80;;;16.70;99.90;;;;;;4994382;28;20236;-63
2023/07/13 05:37:35;;;;;;;17.20;6.07;;;16.70;99.90;;;;;;4996013;28;20206;-66
2023/07/13 05:40:01;;;;;;;18.37;6.00;;;16.70;1.00;;;;;;4989579;28;20304;-66
2023/07/13 05:42:30;;;;;;;12.37;6.43;;;16.80;1.00;;;;;;4994881;28;20201;-66
2023/07/13 05:44:57;;;;;;;18.00;6.03;;;16.90;1.00;;;;;;4994372;28;20210;-66
2023/07/13 05:47:24;;;;;;;13.83;5.47;;;16.70;99.90;;;;;;4997135;28;20241;-66
2023/07/13 05:49:51;;;;;;;16.67;7.30;;;16.90;1.00;;;;;;4997204;28;20201;-67
2023/07/13 05:52:18;;;;;;;16.70;6.93;;;16.80;99.90;;;;;;4997082;28;20230;-65
2023/07/13 05:54:45;;;;;;;12.97;7.07;;;16.80;1.00;;;;;;4996255;28;20205;-66
2023/07/13 05:57:12;;;;;;;15.90;6.40;;;16.70;1.00;;;;;;4996205;28;20404;-66
2023/07/13 05:59:38;;;;;;;20.53;7.70;;;16.80;99.90;;;;;;4998130;28;20279;-67
2023/07/13 06:02:05;;;;;;;16.27;6.93;;;16.90;1.00;;;;;;4992594;28;20259;-65
2023/07/13 06:04:32;;;;;;;16.37;7.53;;;16.80;1.00;;;;;;4991534;28;20570;-66
2023/07/13 06:07:00;;;;;;;15.33;7.63;;;16.80;1.00;;;;;;4993841;28;20657;-66
2023/07/13 06:09:26;;;;;;;16.70;7.53;;;16.90;1.00;;;;;;4994523;28;20271;-66
2023/07/13 06:11:53;;;;;;;14.90;7.87;;;17.00;99.90;;;;;;4997221;28;20250;-63
2023/07/13 06:14:20;;;;;;;18.77;7.63;;;16.90;1.00;;;;;;4993887;28;20685;-61
2023/07/13 06:16:47;;;;;;;13.70;8.20;;;17.00;1.00;;;;;;4990780;28;20215;-59
2023/07/13 06:19:14;;;;;;;13.70;8.40;;;17.10;1.00;;;;;;4993365;28;20579;-61
2023/07/13 06:21:41;;;;;;;16.10;8.73;;;17.00;99.90;;;;;;4995364;28;20211;-63
2023/07/13 06:24:10;;;;;;;13.17;8.10;;;17.00;99.90;;;;;;4991939;28;20210;-60
2023/07/13 06:26:37;;;;;;;22.37;9.10;;;17.10;99.90;;;;;;4991896;28;20209;-60
2023/07/13 06:29:04;;;;;;;17.57;9.40;;;17.20;99.90;;;;;;4644306;28;9999852;-63
2023/07/13 06:31:32;;;;;;;20.23;9.40;;;17.30;1.00;;;;;;4981207;28;20224;-61
2023/07/13 06:33:59;;;;;;;21.30;10.20;;;17.30;99.90;;;;;;4990309;28;20232;-61
2023/07/13 06:36:26;;;;;;;19.80;9.73;;;17.30;1.00;;;;;;4998760;28;20241;-60
2023/07/13 06:38:53;;;;;;;16.10;10.20;;;17.30;5.90;;;;;;4997898;28;20242;-61
2023/07/13 06:41:20;;;;;;;20.50;9.60;;;17.30;1.00;;;;;;4997636;28;20208;-60
2023/07/13 06:43:47;;;;;;;15.10;9.43;;;17.50;99.90;;;;;;4993258;28;20252;-60
2023/07/13 06:46:14;;;;;;;23.53;10.03;;;17.50;1.00;;;;;;4991614;28;20212;-62
2023/07/13 06:48:41;;;;;;;19.27;10.13;;;17.60;1.00;;;;;;4993690;28;20257;-63
2023/07/13 06:51:08;;;;;;;21.37;10.30;;;17.80;1.00;;;;;;4995946;28;20244;-61
2023/07/13 06:53:35;;;;;;;16.37;10.30;;;17.90;99.90;;;;;;4995629;28;20728;-59
2023/07/13 06:56:02;;;;;;;21.70;10.37;;;17.90;99.90;;;;;;4999168;28;20227;-60
2023/07/13 06:58:29;;;;;;;21.50;10.87;;;18.00;1.00;;;;;;5010800;28;20205;-64
2023/07/13 07:00:56;;;;;;;21.13;10.47;;;18.10;99.90;;;;;;4995593;28;21208;-64
2023/07/13 07:03:23;;;;;;;20.23;11.30;;;18.30;1.00;;;;;;4988187;28;20312;-61
2023/07/13 07:05:50;;;;;;;20.80;11.43;;;18.20;1.00;;;;;;4997446;28;20229;-63
2023/07/13 07:08:17;;;;;;;23.67;10.57;;;18.30;99.90;;;;;;4985097;28;20205;-61
2023/07/13 07:10:45;;;;;;;21.93;11.47;;;18.30;1.00;;;;;;4991936;28;20228;-63
2023/07/13 07:13:12;;;;;;;17.63;10.77;;;18.10;1.00;;;;;;4980441;28;20288;-62
2023/07/13 07:15:38;;;;;;;20.07;11.13;;;18.10;99.90;;;;;;5005733;28;20651;-60
2023/07/13 07:18:05;;;;;;;20.20;10.80;;;18.00;1.00;;;;;;4993929;28;20600;-60
2023/07/13 07:20:32;;;;;;;17.07;10.60;;;18.20;99.90;;;;;;4997067;28;20220;-61
2023/07/13 07:22:59;;;;;;;20.80;11.03;;;18.20;1.00;;;;;;4992341;28;20208;-59
2023/07/13 07:25:27;;;;;;;15.30;10.63;;;18.10;3.30;;;;;;4997807;28;20209;-62
2023/07/13 07:27:53;;;;;;;18.30;11.03;;;18.20;1.00;;;;;;4986034;28;20212;-64
2023/07/13 07:30:23;;;;;;;19.17;10.60;;;18.20;99.90;;;;;;4987611;28;20216;-60
2023/07/13 07:32:53;;;;;;;15.83;9.80;;;18.60;1.00;;;;;;4998732;28;21445;-64
2023/07/13 07:35:24;;;;;;;17.03;9.83;;;18.90;99.90;;;;;;5000539;28;20196;-61
2023/07/13 07:37:50;;;;;;;19.70;10.67;;;19.00;1.00;;;;;;4987873;28;20200;-61
2023/07/13 07:40:18;;;;;;;21.07;10.77;;;19.10;19.40;;;;;;4986393;28;20214;-59
2023/07/13 07:42:48;;;;;;;16.43;10.17;;;19.00;1.00;;;;;;4981371;28;20204;-64
2023/07/13 07:45:14;;;;;;;17.67;11.00;;;18.90;1.00;;;;;;4992732;28;20651;-62
2023/07/13 07:47:42;;;;;;;17.57;10.83;;;18.80;99.90;;;;;;4989808;28;20207;-62
2023/07/13 07:50:09;;;;;;;20.00;10.90;;;18.50;1.00;;;;;;4999384;28;20696;-62
2023/07/13 07:52:37;;;;;;;12.67;9.63;;;18.90;1.00;;;;;;4993582;28;20237;-64
2023/07/13 07:55:07;;;;;;;17.93;11.00;;;18.80;99.90;;;;;;4995171;28;20206;-63
2023/07/13 07:57:37;;;;;;;13.37;8.87;;;19.00;97.20;;;;;;4995723;28;20249;-62
2023/07/13 08:00:07;;;;;;;15.27;9.93;;;19.60;1.00;;;;;;4989358;28;20276;-61
2023/07/13 08:02:37;;;;;;;10.20;8.67;;;19.70;99.90;;;;;;4989289;28;20293;-61
2023/07/13 08:05:10;;;;;;;11.60;7.60;;;19.60;1.00;;;;;;4990663;28;20244;-62
2023/07/13 08:07:40;;;;;;;13.17;7.67;;;19.70;1.00;;;;;;4995661;28;20213;-61
2023/07/13 08:10:08;;;;;;;11.33;7.83;;;19.70;1.00;;;;;;4994165;28;20205;-63
2023/07/13 08:12:36;;;;;;;14.60;8.60;;;19.80;1.00;;;;;;4997564;28;20219;-60
2023/07/13 08:15:10;;;;;;;12.07;7.90;;;19.70;1.00;;;;;;5007304;28;20218;-62
2023/07/13 08:17:37;;;;;;;13.13;8.00;;;19.70;1.00;;;;;;4992770;28;20202;-63
2023/07/13 08:20:04;;;;;;;12.50;7.50;;;20.00;1.00;;;;;;4996480;28;20270;-60
2023/07/13 08:22:31;;;;;;;16.97;8.70;;;20.10;1.00;;;;;;4990538;28;20213;-63
2023/07/13 08:24:59;;;;;;;11.43;7.90;;;20.20;99.90;;;;;;4988760;28;20213;-59
2023/07/13 08:27:28;;;;;;;13.53;7.60;;;19.90;99.90;;;;;;4993014;28;22500;-63
2023/07/13 08:29:55;;;;;;;14.13;6.77;;;19.60;1.00;;;;;;4991313;28;20201;-61
2023/07/13 08:32:23;;;;;;;16.23;7.13;;;20.00;1.00;;;;;;4993865;28;20217;-61
2023/07/13 08:34:50;;;;;;;13.77;7.40;;;20.40;99.90;;;;;;4992698;28;20193;-63
2023/07/13 08:37:18;;;;;;;11.03;6.03;;;20.40;99.90;;;;;;4992317;28;20603;-60
2023/07/13 08:39:45;;;;;;;13.47;6.70;;;20.30;99.90;;;;;;4997913;28;20791;-60
2023/07/13 08:42:33;;;;;;;13.40;5.47;;;20.50;99.90;;;;;;4996142;28;20209;-60
2023/07/13 08:45:18;;;;;;;11.67;6.27;;;20.40;99.90;;;;;;4990565;28;20838;-60
2023/07/13 08:48:04;;;;;;;10.17;5.90;;;19.80;99.90;;;;;;4996570;28;20259;-63
2023/07/13 08:50:35;;;;;;;14.23;6.53;;;19.90;1.00;;;;;;4994229;28;23020;-61
2023/07/13 08:53:22;;;;;;;7.23;5.30;;;20.30;99.90;;;;;;4992700;28;20221;-65
2023/07/13 08:55:56;;;;;;;10.50;4.83;;;20.10;99.90;;;;;;4992959;28;20208;-65
2023/07/13 08:58:28;;;;;;;10.43;5.07;;;20.00;99.90;;;;;;4990997;28;20899;-66
2023/07/13 09:01:06;;;;;;;8.70;4.97;;;20.50;99.90;;;;;;4991755;28;20205;-64
2023/07/13 09:03:44;;;;;;;7.57;5.50;;;20.70;99.90;;;;;;4988830;28;20299;-66
2023/07/13 09:06:14;;;;;;;6.80;4.53;;;20.40;99.90;;;;;;4991744;28;20225;-66
2023/07/13 09:09:01;;;;;;;8.40;5.13;;;20.50;99.90;;;;;;4980617;28;20205;-65
2023/07/13 09:11:36;;;;;;;9.97;5.57;;;20.90;1.00;;;;;;4984890;28;20580;-65
2023/07/13 09:14:31;;;;;;;7.97;4.53;;;20.80;52.60;;;;;;4987704;28;20200;-64
2023/07/13 09:16:59;;;;;;;6.97;4.60;;;20.90;21.40;;;;;;4988383;28;20212;-66
2023/07/13 09:19:33;;;;;;;6.53;4.53;;;21.00;1.00;;;;;;4989274;28;20861;-64
2023/07/13 09:22:03;;;;;;;6.80;3.73;;;20.90;1.00;;;;;;4990885;28;20213;-65
2023/07/13 09:24:33;;;;;;;11.00;5.40;;;21.10;1.00;;;;;;4989390;28;20216;-65
2023/07/13 09:27:03;;;;;;;8.77;4.10;;;21.20;1.00;;;;;;4992120;28;20301;-66
2023/07/13 09:29:34;;;;;;;8.90;4.63;;;21.30;1.00;;;;;;4990007;28;20296;-65
2023/07/13 09:32:06;;;;;;;8.07;4.40;;;20.80;1.00;;;;;;4991311;28;20217;-65
2023/07/13 09:34:33;;;;;;;9.43;5.17;;;20.70;1.00;;;;;;4989209;28;20581;-66
2023/07/13 09:37:00;;;;;;;7.30;5.10;;;20.60;1.00;;;;;;4991939;28;20265;-66
2023/07/13 09:39:29;;;;;;;7.70;5.00;;;20.70;27.40;;;;;;4990377;28;20205;-66
2023/07/13 09:42:13;;;;;;;10.67;5.13;;;20.80;1.00;;;;;;4987768;28;20240;-66
2023/07/13 09:44:58;;;;;;;11.13;5.43;;;20.70;20.10;;;;;;4985374;28;21593;-65
2023/07/13 09:47:29;;;;;;;8.60;4.97;;;20.90;90.70;;;;;;4991937;28;20241;-64
2023/07/13 09:50:00;;;;;;;9.33;5.80;;;20.90;1.00;;;;;;4991285;28;20929;-67
2023/07/13 09:52:51;;;;;;;13.07;5.57;;;20.90;1.00;;;;;;4990669;28;20272;-64
2023/07/13 09:55:29;;;;;;;9.30;6.00;;;21.20;1.00;;;;;;4991933;28;20228;-63
2023/07/13 09:57:56;;;;;;;6.30;5.50;;;21.30;1.00;;;;;;4990630;28;20197;-66
2023/07/13 10:00:26;;;;;;;9.37;5.40;;;21.70;1.00;;;;;;4984329;28;20304;-66
2023/07/13 10:03:29;;;;;;;6.60;4.60;;;21.60;1.00;;;;;;4994312;28;20275;-67
2023/07/13 10:06:10;;;;;;;7.00;4.70;;;21.40;1.00;;;;;;4994430;28;20255;-66
2023/07/13 10:08:37;;;;;;;6.07;4.53;;;22.10;1.00;;;;;;4981446;28;20620;-64
2023/07/13 10:11:31;;;;;;;9.77;5.07;;;21.70;1.00;;;;;;4999383;28;20205;-66
2023/07/13 10:13:59;;;;;;;5.57;3.50;;;21.90;1.00;;;;;;4984095;28;20297;-65
2023/07/13 10:16:33;;;;;;;5.13;2.60;;;22.30;1.00;;;;;;4992566;28;20258;-66
2023/07/13 10:19:12;;;;;;;7.40;3.33;;;22.20;1.00;;;;;;4989475;28;20205;-65
2023/07/13 10:21:54;;;;;;;4.30;2.50;;;22.10;1.00;;;;;;4988431;28;20193;-66
2023/07/13 10:24:33;;;;;;;6.67;2.73;;;22.20;1.00;;;;;;4992660;28;20216;-66
2023/07/13 10:27:26;;;;;;;9.87;4.97;;;22.20;1.00;;;;;;4992854;28;20208;-65
2023/07/13 10:30:03;;;;;;;6.47;3.97;;;21.90;1.00;;;;;;4997866;28;20629;-66
2023/07/13 10:32:30;;;;;;;7.97;3.70;;;21.60;1.00;;;;;;4997874;28;20217;-67
2023/07/13 10:35:01;;;;;;;9.37;3.67;;;21.40;1.00;;;;;;4991249;28;20207;-65
2023/07/13 10:37:42;;;;;;;8.57;4.23;;;21.30;1.00;;;;;;4993734;28;20205;-66
2023/07/13 10:40:16;;;;;;;6.00;3.60;;;21.20;1.00;;;;;;4990306;28;20223;-69
2023/07/13 10:42:47;;;;;;;8.93;4.07;;;21.10;1.00;;;;;;4997511;28;20295;-66
2023/07/13 10:45:19;;;;;;;9.70;3.37;;;21.20;1.00;;;;;;4991467;28;20585;-68
2023/07/13 10:47:49;;;;;;;6.27;2.70;;;21.20;1.00;;;;;;4984242;28;20209;-66
2023/07/13 10:50:27;;;;;;;9.33;3.13;;;21.00;1.00;;;;;;4988466;28;20232;-65
2023/07/13 10:53:01;;;;;;;7.73;3.00;;;20.80;1.00;;;;;;4990244;28;20311;-65
2023/07/13 10:55:31;;;;;;;10.83;2.83;;;20.10;1.00;;;;;;4993950;28;20654;-65
2023/07/13 10:58:03;;;;;;;8.23;3.20;;;20.00;1.00;;;;;;4985897;28;20333;-63
2023/07/13 11:00:42;;;;;;;6.20;3.20;;;20.00;86.70;;;;;;4983749;28;20565;-63
2023/07/13 11:03:14;;;;;;;6.07;3.27;;;20.20;1.00;;;;;;4989504;28;20578;-64
2023/07/13 11:05:41;;;;;;;7.93;4.07;;;20.60;99.90;;;;;;4993021;28;20641;-63
2023/07/13 11:08:32;;;;;;;7.07;3.17;;;20.50;1.00;;;;;;5007515;28;20273;-64
2023/07/13 11:10:59;;;;;;;9.83;3.80;;;20.10;1.00;;;;;;4993350;28;20264;-65
2023/07/13 11:14:00;;;;;;;5.30;2.90;;;19.60;1.00;;;;;;4995498;28;20888;-65
2023/07/13 11:16:41;;;;;;;5.73;2.73;;;19.70;1.00;;;;;;4993765;28;21732;-65
2023/07/13 11:19:25;;;;;;;6.57;3.13;;;19.80;1.00;;;;;;4991874;28;20224;-63
2023/07/13 11:22:07;;;;;;;3.37;2.83;;;19.80;99.90;;;;;;4992116;28;21231;-65
2023/07/13 11:24:53;;;;;;;5.27;3.30;;;19.90;99.90;;;;;;4989959;28;20260;-67
2023/07/13 11:27:31;;;;;;;7.83;3.50;;;20.20;1.00;;;;;;4989821;28;20372;-65
2023/07/13 11:30:25;;;;;;;7.73;3.27;;;20.60;1.00;;;;;;4998452;28;20220;-66
2023/07/13 11:33:05;;;;;;;5.43;3.30;;;21.10;99.90;;;;;;4993860;28;20225;-65
2023/07/13 11:35:36;;;;;;;6.40;2.77;;;21.50;1.00;;;;;;4997037;28;20202;-67
2023/07/13 11:38:09;;;;;;;5.27;2.60;;;21.90;1.00;;;;;;4998998;28;20198;-66
2023/07/13 11:40:36;;;;;;;5.70;3.23;;;21.80;63.40;;;;;;4999929;28;20290;-66
2023/07/13 11:43:07;;;;;;;4.60;2.50;;;21.50;93.70;;;;;;4997946;28;20295;-67
2023/07/13 11:45:34;;;;;;;4.60;2.10;;;21.40;99.90;;;;;;5010976;28;20590;-65
2023/07/13 11:48:28;;;;;;;5.53;2.40;;;21.90;1.00;;;;;;5001340;28;20250;-64
2023/07/13 11:51:04;;;;;;;5.47;2.10;;;22.40;99.90;;;;;;4999568;28;20206;-65
2023/07/13 11:53:40;;;;;;;5.70;2.00;;;22.00;1.00;;;;;;4996863;28;20217;-65
2023/07/13 11:56:07;;;;;;;3.57;1.97;;;22.40;1.00;;;;;;5000738;28;20198;-65
2023/07/13 11:58:34;;;;;;;6.80;1.70;;;22.60;1.00;;;;;;5000265;28;21981;-63
2023/07/13 12:01:05;;;;;;;7.20;1.87;;;22.80;1.00;;;;;;5000675;28;20657;-66
2023/07/13 12:03:34;;;;;;;5.57;2.07;;;22.60;1.00;;;;;;5000852;28;20241;-66
2023/07/13 12:06:05;;;;;;;2.50;1.70;;;22.30;1.00;;;;;;4997014;28;20588;-66
2023/07/13 12:08:41;;;;;;;3.03;1.30;;;21.80;1.00;;;;;;4994981;28;20257;-67
2023/07/13 12:11:18;;;;;;;3.67;2.30;;;21.90;1.00;;;;;;4998350;28;20227;-67
2023/07/13 12:13:47;;;;;;;5.20;2.00;;;22.70;1.00;;;;;;4991130;28;20289;-66
2023/07/13 12:16:32;;;;;;;3.73;1.50;;;22.90;1.00;;;;;;4995816;28;20760;-66
2023/07/13 12:19:02;;;;;;;5.07;1.73;;;22.90;1.00;;;;;;4998603;28;20198;-60
2023/07/13 12:21:39;;;;;;;2.93;1.53;;;23.20;1.00;;;;;;4987588;28;20464;-61
2023/07/13 12:24:18;;;;;;;2.53;1.90;;;23.10;1.00;;;;;;4994521;28;20225;-68
2023/07/13 12:26:51;;;;;;;7.77;1.80;;;23.10;1.00;;;;;;4979352;28;20207;-66
2023/07/13 12:29:18;;;;;;;2.37;1.70;;;23.20;1.00;;;;;;4991948;28;20209;-65
2023/07/13 12:31:48;;;;;;;7.27;1.60;;;22.60;1.00;;;;;;4981145;28;20221;-64
2023/07/13 12:34:18;;;;;;;4.70;1.37;;;22.40;1.00;;;;;;4991674;28;20325;-67
2023/07/13 12:36:54;;;;;;;4.73;1.60;;;23.00;1.00;;;;;;4988270;28;20208;-67
2023/07/13 12:39:28;;;;;;;2.30;1.30;;;23.60;1.00;;;;;;4991642;28;20203;-64
2023/07/13 12:42:26;;;;;;;3.83;1.40;;;23.90;1.00;;;;;;4991474;28;20559;-66
2023/07/13 12:45:18;;;;;;;4.33;1.47;;;23.40;1.00;;;;;;4992355;28;20315;-65
2023/07/13 12:47:50;;;;;;;2.40;1.30;;;23.60;1.00;;;;;;4992770;28;20243;-65
2023/07/13 12:50:21;;;;;;;2.53;1.43;;;23.20;1.00;;;;;;4986095;28;20281;-67
2023/07/13 12:52:53;;;;;;;5.53;2.07;;;23.00;1.00;;;;;;4988248;28;20209;-66
2023/07/13 12:55:21;;;;;;;4.87;1.40;;;23.40;1.00;;;;;;4990861;28;20303;-66
2023/07/13 12:57:58;;;;;;;3.10;1.23;;;23.70;1.00;;;;;;4991018;28;20638;-67
2023/07/13 13:00:38;;;;;;;3.27;1.90;;;23.70;1.00;;;;;;4990334;28;20238;-66
2023/07/13 13:03:18;;;;;;;2.80;1.60;;;23.40;1.00;;;;;;4992429;28;20226;-65
2023/07/13 13:06:00;;;;;;;2.33;1.50;;;23.10;1.00;;;;;;4988704;28;20292;-66